WEATHER DATA

YESTERDAY
Time Temp. Dewp. Hum. Bar.
00:05 3.7 1.6 86 1017.3
00:24 3.6 1.5 86 1017.3
00:35 3.6 1.5 86 1017.2
00:46 3.5 1.4 86 1017.2
00:55 3.5 1.4 86 1017.1
01:05 3.4 1.3 86 1016.9
01:15 3.3 1.2 86 1016.8
01:26 3.3 1.2 86 1016.8
01:35 3.2 1.1 86 1016.8
01:45 3.2 1.1 86 1016.6
01:56 3.1 1 86 1016.7
02:05 3.1 1 86 1016.6
02:15 3 0.9 86 1016.6
02:26 3 0.9 86 1016.6
02:36 2.9 0.8 86 1016.7
02:46 2.9 0.8 86 1016.6
02:55 2.8 0.7 86 1016.7
03:06 2.8 0.7 86 1016.5
03:16 2.8 0.7 86 1016.4
03:25 2.8 0.7 86 1016.3
03:36 2.8 0.7 86 1016.1
03:46 2.8 0.7 86 1016
03:56 2.7 0.6 86 1015.9
04:06 2.7 0.6 86 1015.8
04:16 2.6 0.5 86 1015.7
04:26 2.6 0.5 86 1015.6
04:36 2.5 0.4 86 1015.5
04:46 2.6 0.5 86 1015.6
04:56 2.6 0.5 86 1015.6
05:06 2.6 0.5 86 1015.5
05:16 2.6 0.5 86 1015.4
05:26 2.5 0.4 86 1015.2
05:36 2.4 0.3 86 1015.3
05:46 2.4 0.3 86 1015.2
05:57 2.3 0.2 86 1015.1
06:06 2.2 0.1 86 1015.1
06:16 2.1 0 86 1015.1
06:27 2.1 0 86 1015
06:37 2 -0.1 86 1014.9
06:46 2.1 0 86 1015
06:56 2 -0.1 86 1014.9
07:07 2 -0.1 86 1014.8
07:17 1.9 -0.2 86 1014.8
07:26 1.9 -0.2 86 1014.8
07:37 2 -0.1 86 1014.8
07:47 2.1 0 86 1014.7
07:56 2.2 0.1 86 1014.8
08:07 2.4 0.3 86 1014.8
08:17 2.5 0.4 86 1014.8
08:27 2.6 0.5 86 1014.8
08:36 2.7 0.8 87 1014.8
08:47 2.8 0.9 87 1014.8
08:57 2.8 0.9 87 1014.8
09:07 3 1.1 87 1014.9
09:17 3.1 1.1 87 1014.9
09:27 3.1 1.1 87 1014.9
09:37 3.3 1.3 87 1014.9
09:47 3.4 1.4 87 1014.9
09:57 3.5 1.5 87 1015
10:07 3.6 1.6 87 1014.8
10:17 3.7 1.7 87 1014.8
10:27 3.9 1.9 87 1014.8
10:37 4.1 2.1 87 1014.7
10:47 4.4 2.4 87 1014.8
10:57 4.7 2.7 87 1014.8
11:08 5.1 3.1 87 1014.9
11:17 5.4 3.4 87 1014.8
11:27 5.7 3.7 87 1014.8
11:38 5.9 3.7 86 1014.7
11:48 6.1 3.9 86 1014.6
11:57 6.3 4.1 86 1014.5
12:07 6.5 4.3 86 1014.3
12:18 6.7 4.5 86 1013.9
12:28 6.9 4.7 86 1013.8
12:37 7.2 5 86 1013.8
12:48 7.4 5.2 86 1013.6
12:58 7.7 5.5 86 1013.7
13:08 7.9 5.5 85 1013.7
13:17 8.1 5.7 85 1013.6
13:28 8.3 5.9 85 1013.5
13:38 8.6 6.2 85 1013.4
13:47 8.7 6.3 85 1013.2
13:58 8.9 6.5 85 1013
14:08 9.1 6.5 84 1013
14:18 9.3 6.7 84 1012.9
14:28 9.4 6.8 84 1013
14:38 9.6 7 84 1012.9
14:48 9.7 7 83 1012.8
14:58 9.7 7 83 1012.8
15:09 9.8 7.1 83 1012.7
15:18 9.8 7.1 83 1012.7
15:28 9.8 7.1 83 1012.7
15:38 9.6 6.7 82 1012.6
15:49 9.4 6.5 82 1012.6
15:58 9.3 6.4 82 1012.7
16:08 9.1 6.2 82 1012.6
16:18 8.9 6 82 1012.6
16:29 8.7 5.8 82 1012.6
16:38 8.5 5.4 81 1012.6
16:48 8.3 5.2 81 1012.6
16:59 8.2 5.1 81 1012.5
17:09 8.1 5 81 1012.5
17:18 8 4.9 81 1012.5
17:29 7.9 4.8 81 1012.6
17:39 7.9 4.8 81 1012.5
17:49 7.8 4.7 81 1012.5
17:59 7.7 4.7 81 1012.5
18:09 7.6 4.6 81 1012.6
18:19 7.6 4.6 81 1012.6
18:29 7.6 4.6 81 1012.7
18:39 7.6 4.6 81 1012.7
18:49 7.5 4.5 81 1012.6
18:59 7.5 4.5 81 1012.5
19:09 7.5 4.5 81 1012.5
19:19 7.4 4.4 81 1012.5
19:29 7.4 4.4 81 1012.5
19:39 7.3 4.3 81 1012.6
19:49 7.3 4.3 81 1012.6
19:59 7.3 4.3 81 1012.6
20:09 7.3 4.3 81 1012.6
20:19 7.3 4.3 81 1012.6
20:29 7.3 4.3 81 1012.5
20:39 7.3 4.3 81 1012.4
20:49 7.3 4.3 81 1012.4
21:00 7.3 4.3 81 1012.4
21:09 7.3 4.4 82 1012.4
21:19 7.3 4.4 82 1012.4
21:30 7.2 4.3 82 1012.3
21:40 7.1 4.2 82 1012.3
21:49 7 4.1 82 1012.2
22:00 6.9 4 82 1012.3
22:10 6.8 3.9 82 1012.1
22:20 6.8 3.9 82 1012.1
22:29 6.6 3.8 82 1012.1
22:40 6.4 3.6 82 1012.2
22:50 6.3 3.5 82 1011.9
23:00 6.1 3.3 82 1012
23:10 6 3.2 82 1011.9
23:25 6 3.2 82 1011.7
23:35 5.8 3 82 1011.6
23:45 5.8 3 82 1011.6
23:55 5.7 2.9 82 1011.6

DAY STATISTIC

2020-01-26
TEMPERATURE
AVERAGE
5.4
HIGH
9.8
15:09
LOW
1.9
07:17
PRESSURE
AVERAGE
1014.1
HIGH
1017.3
00:05
LOW
1011.6
23:35
DEWPOINT
AVERAGE
3.0
HIGH
7.1
15:09
LOW
-0.2
07:17
HUMIDITY
AVERAGE
84
HIGH
87
08:36
LOW
81
16:38
TEMPERATURE (°C)
LOW
1.9
HIGH
9.8
AVERAGE
5.4
PRESSURE (hpa)
LOW
1011.6
HIGH
1017.3
AVERAGE
1014.1
DEVICE